Time;durP1;ratioP1;P1;durP2;ratioP2;P2;SDS_P1;SDS_P2;PMS_P1;PMS_P2;Temp;Humidity;BMP_temperature;BMP_pressure;BME280_temperature;BME280_humidity;BME280_pressure;Samples;Min_cycle;Max_cycle;Signal;HPM_P1;HPM_P2
2023/06/03 00:00:28;;;;;;;0.00;0.00;;;;;;;9.01;67.32;101094.88;4970388;28;20679;-74
2023/06/03 00:02:56;;;;;;;0.00;0.00;;;;;;;9.37;66.77;101088.00;4973894;28;20214;-74
2023/06/03 00:05:22;;;;;;;0.00;0.00;;;;;;;9.44;66.11;101083.03;4974953;28;20188;-73
2023/06/03 00:07:48;;;;;;;0.00;0.00;;;;;;;9.61;65.52;101085.31;4974762;28;20455;-73
2023/06/03 00:10:14;;;;;;;0.00;0.00;;;;;;;9.38;65.34;101080.63;4975319;28;20627;-74
2023/06/03 00:12:39;;;;;;;0.00;0.00;;;;;;;8.86;66.30;101079.47;4975121;28;20209;-74
2023/06/03 00:15:06;;;;;;;0.00;0.00;;;;;;;8.52;67.62;101085.66;4957666;28;20222;-74
2023/06/03 00:17:33;;;;;;;0.00;0.00;;;;;;;8.46;68.09;101088.72;4974945;28;20240;-73
2023/06/03 00:20:06;;;;;;;0.00;0.00;;;;;;;8.58;68.43;101087.28;4957516;28;20204;-73
2023/06/03 00:22:36;;;;;;;0.00;0.00;;;;;;;8.83;67.76;101085.47;4974901;28;20216;-74
2023/06/03 00:25:02;;;;;;;0.00;0.00;;;;;;;8.92;66.97;101079.13;4957347;28;20210;-74
2023/06/03 00:27:27;;;;;;;0.00;0.00;;;;;;;8.88;66.90;101083.53;4974811;28;20182;-74
2023/06/03 00:29:53;;;;;;;0.00;0.00;;;;;;;8.64;66.94;101077.97;4957311;28;20649;-74
2023/06/03 00:32:18;;;;;;;0.00;0.00;;;;;;;8.56;67.99;101081.28;4974662;28;20576;-74
2023/06/03 00:34:43;;;;;;;0.00;0.00;;;;;;;8.57;67.75;101088.38;4974777;28;20650;-74
2023/06/03 00:37:09;;;;;;;0.00;0.00;;;;;;;8.48;68.09;101083.78;4975049;28;20201;-74
2023/06/03 00:39:34;;;;;;;0.00;0.00;;;;;;;8.50;68.40;101087.03;4974356;28;20653;-75
2023/06/03 00:42:00;;;;;;;0.00;0.00;;;;;;;8.48;68.98;101098.22;4974723;28;20244;-74
2023/06/03 00:44:25;;;;;;;0.00;0.00;;;;;;;8.76;69.02;101093.97;4974672;28;20193;-74
2023/06/03 00:46:52;;;;;;;0.00;0.00;;;;;;;8.84;68.08;101101.53;4957486;28;20281;-74
2023/06/03 00:49:17;;;;;;;0.00;0.00;;;;;;;9.08;68.01;101106.25;4974333;28;20185;-75
2023/06/03 00:51:43;;;;;;;0.00;0.00;;;;;;;9.25;67.94;101104.72;4974297;28;20269;-74
2023/06/03 00:54:08;;;;;;;0.00;0.00;;;;;;;9.37;67.17;101107.09;4974518;28;20279;-74
2023/06/03 00:56:41;;;;;;;0.00;0.00;;;;;;;9.35;66.83;101098.38;4974443;28;20531;-75
2023/06/03 00:59:06;;;;;;;0.00;0.00;;;;;;;9.38;66.77;101108.72;4974148;28;20265;-74
2023/06/03 01:01:35;;;;;;;0.00;0.00;;;;;;;9.27;66.51;101100.94;4974404;28;20216;-75
2023/06/03 01:04:01;;;;;;;0.00;0.00;;;;;;;9.13;66.72;101107.03;4957803;28;20357;-74
2023/06/03 01:06:51;;;;;;;0.00;0.00;;;;;;;8.95;67.29;101105.78;4974304;28;20691;-73
2023/06/03 01:09:28;;;;;;;0.00;0.00;;;;;;;8.78;67.84;101101.84;4974175;28;20264;-73
2023/06/03 01:11:59;;;;;;;0.00;0.00;;;;;;;8.62;68.42;101112.84;4974206;28;20185;-74
2023/06/03 01:14:32;;;;;;;0.00;0.00;;;;;;;8.55;68.65;101112.34;4969564;28;20206;-72
2023/06/03 01:16:59;;;;;;;0.00;0.00;;;;;;;8.41;68.91;101105.91;4974093;28;20652;-74
2023/06/03 01:19:48;;;;;;;0.00;0.00;;;;;;;8.19;69.57;101108.94;4956379;28;20189;-74
2023/06/03 01:22:18;;;;;;;0.00;0.00;;;;;;;7.94;70.13;101111.75;4956536;28;20811;-74
2023/06/03 01:24:44;;;;;;;0.00;0.00;;;;;;;7.48;71.54;101125.47;4974071;28;20178;-74
2023/06/03 01:27:10;;;;;;;0.00;0.00;;;;;;;7.52;71.99;101126.53;4956412;28;20186;-74
2023/06/03 01:29:37;;;;;;;0.00;0.00;;;;;;;7.28;72.52;101129.03;4973729;28;20185;-74
2023/06/03 01:32:03;;;;;;;0.00;0.00;;;;;;;7.34;72.70;101127.13;4973648;28;20272;-74
2023/06/03 01:34:30;;;;;;;0.00;0.00;;;;;;;7.47;73.54;101124.66;4973742;28;20202;-74
2023/06/03 01:36:57;;;;;;;0.00;0.00;;;;;;;7.62;73.22;101129.25;4973637;28;20672;-74
2023/06/03 01:39:23;;;;;;;0.00;0.00;;;;;;;7.65;72.99;101127.88;4973229;28;20212;-73
2023/06/03 01:41:49;;;;;;;0.00;0.00;;;;;;;7.67;73.15;101123.81;4973474;28;20675;-74
2023/06/03 01:44:15;;;;;;;0.10;0.10;;;;;;;7.54;72.56;101124.41;4956578;28;20182;-74
2023/06/03 01:46:40;;;;;;;0.00;0.00;;;;;;;7.40;73.31;101126.03;4973081;28;20188;-74
2023/06/03 01:49:07;;;;;;;0.00;0.00;;;;;;;7.36;73.52;101124.94;4973338;28;20601;-74
2023/06/03 01:51:33;;;;;;;0.00;0.00;;;;;;;7.31;73.82;101131.19;4973633;28;20672;-74
2023/06/03 01:53:58;;;;;;;0.00;0.00;;;;;;;7.26;73.82;101125.78;4973358;28;20292;-73
2023/06/03 01:56:24;;;;;;;0.00;0.00;;;;;;;7.11;74.05;101137.47;4973032;28;20212;-73
2023/06/03 01:58:49;;;;;;;0.00;0.00;;;;;;;6.97;74.77;101128.22;4972885;28;20224;-73
2023/06/03 02:01:14;;;;;;;0.00;0.00;;;;;;;6.88;75.14;101135.25;4973298;28;20182;-73
2023/06/03 02:03:40;;;;;;;0.00;0.00;;;;;;;6.81;75.58;101126.56;4972915;28;20754;-74
2023/06/03 02:06:05;;;;;;;0.00;0.00;;;;;;;6.81;75.46;101127.38;4955827;28;20188;-74
2023/06/03 02:08:31;;;;;;;0.00;0.00;;;;;;;6.76;75.76;101121.91;4972373;28;20628;-72
2023/06/03 02:10:56;;;;;;;0.00;0.00;;;;;;;6.67;75.93;101128.16;4973104;28;20280;-73
2023/06/03 02:13:21;;;;;;;0.00;0.00;;;;;;;6.65;76.04;101131.13;4972951;28;20233;-72
2023/06/03 02:15:47;;;;;;;0.00;0.00;;;;;;;6.60;76.23;101130.31;4972912;28;20214;-73
2023/06/03 02:18:12;;;;;;;0.00;0.00;;;;;;;6.56;76.51;101130.03;4972593;28;20197;-74
2023/06/03 02:20:37;;;;;;;0.00;0.00;;;;;;;6.50;76.90;101126.47;4972981;28;20248;-74
2023/06/03 02:23:03;;;;;;;0.00;0.00;;;;;;;6.40;77.46;101126.47;4972815;28;20225;-74
2023/06/03 02:25:29;;;;;;;0.00;0.00;;;;;;;6.37;77.38;101127.00;4955268;28;20193;-74
2023/06/03 02:27:56;;;;;;;1.13;1.03;;;;;;;6.38;77.47;101128.63;4972597;28;20186;-74
2023/06/03 02:30:22;;;;;;;0.00;0.00;;;;;;;6.42;77.84;101135.16;4972696;28;20535;-73
2023/06/03 02:32:47;;;;;;;0.00;0.00;;;;;;;6.36;77.88;101127.25;4955155;28;20240;-75
2023/06/03 02:35:13;;;;;;;0.67;0.67;;;;;;;6.28;78.05;101133.19;4955484;28;20217;-75
2023/06/03 02:37:38;;;;;;;0.00;0.00;;;;;;;6.28;78.27;101134.03;4972323;28;20181;-74
2023/06/03 02:40:05;;;;;;;0.00;0.00;;;;;;;6.22;78.87;101152.19;4972068;28;20206;-75
2023/06/03 02:42:30;;;;;;;0.00;0.00;;;;;;;6.31;78.92;101144.34;4972314;28;20201;-75
2023/06/03 02:44:56;;;;;;;0.10;0.10;;;;;;;6.43;78.91;101144.91;4972506;28;20193;-75
2023/06/03 02:47:21;;;;;;;0.87;0.87;;;;;;;6.50;78.61;101141.94;4972413;28;20182;-75
2023/06/03 02:49:47;;;;;;;0.00;0.00;;;;;;;6.62;78.82;101139.81;4972085;28;20181;-74
2023/06/03 02:52:12;;;;;;;0.00;0.00;;;;;;;6.72;78.83;101142.56;4955158;28;20206;-74
2023/06/03 02:54:38;;;;;;;0.00;0.00;;;;;;;6.66;78.22;101140.13;4972178;28;20356;-75
2023/06/03 02:57:03;;;;;;;0.00;0.00;;;;;;;6.66;78.11;101134.69;4938891;28;20181;-75
2023/06/03 02:59:29;;;;;;;0.00;0.00;;;;;;;6.67;78.06;101131.69;4971815;28;20212;-74
2023/06/03 03:01:54;;;;;;;0.00;0.00;;;;;;;6.66;78.42;101131.97;4954918;28;20268;-75
2023/06/03 03:04:20;;;;;;;0.00;0.00;;;;;;;6.67;78.46;101130.88;4972279;28;20209;-75
2023/06/03 03:06:49;;;;;;;0.00;0.00;;;;;;;6.62;78.69;101130.84;4955078;28;20195;-75
2023/06/03 03:09:15;;;;;;;0.00;0.00;;;;;;;6.57;78.63;101124.34;4971720;28;20192;-75
2023/06/03 03:11:40;;;;;;;0.00;0.00;;;;;;;6.56;78.62;101125.41;4972053;28;20182;-75
2023/06/03 03:14:06;;;;;;;0.00;0.00;;;;;;;6.62;79.09;101134.38;4972081;28;20188;-74
2023/06/03 03:16:33;;;;;;;0.00;0.00;;;;;;;6.66;78.93;101130.06;4954628;28;20192;-74
2023/06/03 03:18:58;;;;;;;0.00;0.00;;;;;;;6.71;78.58;101134.69;4971605;28;20184;-75
2023/06/03 03:21:24;;;;;;;0.00;0.00;;;;;;;6.72;78.50;101128.16;4971980;28;20182;-73
2023/06/03 03:23:50;;;;;;;0.00;0.00;;;;;;;6.71;78.01;101131.97;4971772;28;20606;-74
2023/06/03 03:26:21;;;;;;;0.00;0.00;;;;;;;6.59;78.47;101128.69;4971999;28;20182;-75
2023/06/03 03:28:47;;;;;;;0.00;0.00;;;;;;;6.52;78.27;101127.03;4971482;28;20197;-74
2023/06/03 03:31:14;;;;;;;0.00;0.00;;;;;;;6.47;78.45;101135.16;4971994;28;20182;-74
2023/06/03 03:33:40;;;;;;;0.00;0.00;;;;;;;6.40;78.78;101126.47;4954803;28;20309;-75
2023/06/03 03:36:39;;;;;;;0.00;0.00;;;;;;;6.50;79.08;101128.38;4971802;28;20206;-75
2023/06/03 03:39:02;;;;;;;0.00;0.00;;;;;;;6.55;79.10;101139.25;4973232;28;20587;-75
2023/06/03 03:41:28;;;;;;;0.00;0.00;;;;;;;6.62;78.87;101128.94;4975813;28;20186;-75
2023/06/03 03:43:54;;;;;;;0.00;0.00;;;;;;;6.61;78.89;101127.31;4975711;28;20219;-74
2023/06/03 03:46:19;;;;;;;0.00;0.00;;;;;;;6.70;79.08;101130.34;4958604;28;20321;-74
2023/06/03 03:48:45;;;;;;;0.00;0.00;;;;;;;6.71;78.71;101130.06;4973936;28;20266;-74
2023/06/03 03:51:13;;;;;;;0.00;0.00;;;;;;;6.80;78.98;101125.75;4976028;28;20679;-75
2023/06/03 03:53:43;;;;;;;0.00;0.00;;;;;;;6.90;79.07;101129.53;4975657;28;20217;-75
2023/06/03 03:56:09;;;;;;;0.20;0.20;;;;;;;6.78;78.47;101127.06;4958597;28;20691;-73
2023/06/03 03:58:40;;;;;;;0.83;0.43;;;;;;;6.95;78.48;101129.56;4974914;28;20322;-75
2023/06/03 04:01:22;;;;;;;0.00;0.00;;;;;;;7.15;78.78;101132.28;4975568;28;20174;-73
2023/06/03 04:03:49;;;;;;;0.00;0.00;;;;;;;7.21;77.89;101131.19;4958814;28;20240;-74
2023/06/03 04:06:39;;;;;;;0.00;0.00;;;;;;;7.38;77.16;101126.31;4975612;28;20186;-74
2023/06/03 04:09:21;;;;;;;0.00;0.00;;;;;;;7.51;76.63;101119.47;4973469;28;20213;-74
2023/06/03 04:11:46;;;;;;;0.00;0.00;;;;;;;7.53;75.59;101111.88;4975126;28;20810;-75
2023/06/03 04:14:15;;;;;;;0.00;0.00;;;;;;;7.65;74.83;101106.13;4957599;28;20189;-74
2023/06/03 04:16:45;;;;;;;0.00;0.00;;;;;;;7.73;73.82;101103.69;4975066;28;20178;-75
2023/06/03 04:19:15;;;;;;;0.00;0.00;;;;;;;7.89;73.42;101101.72;4957453;28;20189;-74
2023/06/03 04:21:41;;;;;;;0.00;0.00;;;;;;;8.06;72.79;101109.53;4974917;28;20236;-75
2023/06/03 04:24:07;;;;;;;0.00;0.00;;;;;;;8.06;72.34;101106.81;4957696;28;20193;-75
2023/06/03 04:26:34;;;;;;;0.00;0.00;;;;;;;8.15;71.91;101102.44;4957602;28;20675;-75
2023/06/03 04:28:59;;;;;;;0.63;0.63;;;;;;;8.26;72.40;101109.47;4957150;28;20189;-75
2023/06/03 04:31:24;;;;;;;0.00;0.00;;;;;;;8.28;72.12;101103.75;4975138;28;20274;-75
2023/06/03 04:33:50;;;;;;;0.00;0.00;;;;;;;8.36;71.75;101116.78;4974704;28;20741;-75
2023/06/03 04:36:15;;;;;;;0.00;0.00;;;;;;;8.43;71.91;101121.94;4974850;28;20213;-74
2023/06/03 04:38:41;;;;;;;0.07;0.07;;;;;;;8.50;72.05;101130.59;4956801;28;20272;-75
2023/06/03 04:41:10;;;;;;;0.00;0.00;;;;;;;8.49;71.29;101118.91;4974930;28;20586;-75
2023/06/03 04:43:38;;;;;;;0.00;0.00;;;;;;;8.49;71.43;101118.09;4957150;28;20792;-75
2023/06/03 04:46:05;;;;;;;0.00;0.00;;;;;;;8.55;71.37;101123.25;4974720;28;20193;-75
2023/06/03 04:48:30;;;;;;;0.00;0.00;;;;;;;8.56;71.25;101119.44;4972740;28;20225;-75
2023/06/03 04:50:55;;;;;;;0.67;0.67;;;;;;;8.52;71.65;101122.97;4957231;28;20185;-75
2023/06/03 04:53:21;;;;;;;0.00;0.00;;;;;;;8.60;72.22;101133.28;4957062;28;20704;-75
2023/06/03 04:55:46;;;;;;;0.00;0.00;;;;;;;8.66;72.13;101132.16;4974175;28;20220;-75
2023/06/03 04:58:12;;;;;;;0.00;0.00;;;;;;;8.66;71.71;101123.97;4973886;28;20181;-73
2023/06/03 05:00:40;;;;;;;0.00;0.00;;;;;;;8.70;71.03;101119.63;4974407;28;20186;-75
2023/06/03 05:03:08;;;;;;;0.00;0.00;;;;;;;8.87;71.70;101125.50;4957663;28;20344;-75
2023/06/03 05:05:37;;;;;;;0.00;0.00;;;;;;;8.87;71.63;101136.38;4974708;28;20178;-73
2023/06/03 05:08:03;;;;;;;0.00;0.00;;;;;;;9.01;71.96;101133.03;4973763;28;20185;-75
2023/06/03 05:10:28;;;;;;;0.00;0.00;;;;;;;9.11;71.44;101133.78;4974278;28;20190;-75
2023/06/03 05:12:54;;;;;;;0.00;0.00;;;;;;;9.20;70.74;101129.31;4956706;28;20233;-75
2023/06/03 05:15:19;;;;;;;0.00;0.00;;;;;;;9.32;70.65;101136.31;4974225;28;20260;-75
2023/06/03 05:17:45;;;;;;;0.00;0.00;;;;;;;9.32;70.62;101136.31;4956312;28;20194;-75
2023/06/03 05:20:11;;;;;;;0.00;0.00;;;;;;;9.39;70.46;101134.06;4974355;28;20708;-75
2023/06/03 05:22:36;;;;;;;0.17;0.00;;;;;;;9.46;69.83;101132.66;4973591;28;20244;-75
2023/06/03 05:25:06;;;;;;;4.80;0.77;;;;;;;9.62;68.73;101129.78;4974099;28;20200;-75
2023/06/03 05:27:31;;;;;;;0.00;0.00;;;;;;;9.65;68.63;101126.47;4973710;28;20185;-75
2023/06/03 05:29:56;;;;;;;0.00;0.00;;;;;;;9.70;70.13;101132.69;4956294;28;20671;-75
2023/06/03 05:32:22;;;;;;;0.30;0.30;;;;;;;9.74;68.13;101122.81;4956264;28;20217;-75
2023/06/03 05:34:47;;;;;;;0.00;0.00;;;;;;;9.99;68.32;101138.13;4965812;28;20206;-75
2023/06/03 05:37:13;;;;;;;0.00;0.00;;;;;;;10.00;66.18;101125.28;4973521;28;20236;-75
2023/06/03 05:39:39;;;;;;;0.00;0.00;;;;;;;10.15;65.69;101127.84;4973310;28;20185;-75
2023/06/03 05:42:04;;;;;;;0.00;0.00;;;;;;;10.26;65.27;101129.34;4973524;28;20684;-75
2023/06/03 05:44:30;;;;;;;0.00;0.00;;;;;;;10.52;65.32;101131.75;4973549;28;20214;-75
2023/06/03 05:46:55;;;;;;;0.00;0.00;;;;;;;10.46;64.06;101133.75;4973455;28;20657;-75
2023/06/03 05:49:21;;;;;;;0.10;0.10;;;;;;;10.36;64.32;101128.41;4956009;28;20665;-75
2023/06/03 05:51:46;;;;;;;0.00;0.00;;;;;;;10.47;65.23;101134.56;4955827;28;20225;-75
2023/06/03 05:54:13;;;;;;;0.00;0.00;;;;;;;10.43;64.62;101131.59;4973446;28;20188;-75
2023/06/03 05:56:38;;;;;;;0.20;0.20;;;;;;;10.56;64.30;101132.78;4973134;28;20182;-74
2023/06/03 05:59:03;;;;;;;0.00;0.00;;;;;;;10.57;64.82;101129.78;4972904;28;20193;-75
2023/06/03 06:01:30;;;;;;;0.00;0.00;;;;;;;10.73;64.36;101128.44;4972765;28;20217;-75
2023/06/03 06:03:55;;;;;;;0.10;0.03;;;;;;;10.89;63.87;101126.31;4956121;28;20688;-75
2023/06/03 06:06:21;;;;;;;0.07;0.07;;;;;;;10.99;63.76;101136.25;4973151;28;20193;-75
2023/06/03 06:08:46;;;;;;;0.10;0.10;;;;;;;10.91;63.05;101128.75;4955279;28;20182;-75
2023/06/03 06:11:13;;;;;;;0.00;0.00;;;;;;;10.93;63.09;101126.50;4955709;28;20194;-76
2023/06/03 06:13:39;;;;;;;0.00;0.00;;;;;;;11.12;62.74;101121.00;4972978;28;20212;-76
2023/06/03 06:16:05;;;;;;;0.10;0.00;;;;;;;11.26;62.93;101130.06;4973217;28;20210;-74
2023/06/03 06:18:31;;;;;;;0.00;0.00;;;;;;;11.20;62.63;101121.16;4973106;28;20236;-78
2023/06/03 06:20:57;;;;;;;0.00;0.00;;;;;;;11.26;62.45;101122.69;4975069;28;20649;-77
2023/06/03 06:23:23;;;;;;;0.57;0.30;;;;;;;11.38;63.71;101124.94;4974776;28;20205;-78
2023/06/03 06:25:50;;;;;;;0.00;0.00;;;;;;;11.52;62.65;101125.00;4973088;28;20189;-76
2023/06/03 06:28:19;;;;;;;0.00;0.00;;;;;;;11.56;62.44;101115.88;4972484;28;20230;-75
2023/06/03 06:30:45;;;;;;;0.73;0.73;;;;;;;11.60;61.49;101113.38;4971277;28;20182;-79
2023/06/03 06:33:13;;;;;;;3.17;1.20;;;;;;;11.57;61.72;101113.94;4968995;28;20304;-82
2023/06/03 06:35:38;;;;;;;0.10;0.10;;;;;;;11.56;61.86;101110.41;4973127;28;20210;-76
2023/06/03 06:38:04;;;;;;;0.20;0.10;;;;;;;11.67;62.02;101123.91;4973313;28;20556;-76
2023/06/03 06:40:33;;;;;;;0.67;0.67;;;;;;;11.89;62.89;101122.16;4966135;28;20185;-76
2023/06/03 06:42:58;;;;;;;0.43;0.43;;;;;;;11.98;61.87;101127.72;4974135;28;20606;-77
2023/06/03 06:45:27;;;;;;;0.50;0.50;;;;;;;12.18;61.79;101129.25;4964726;28;20204;-77
2023/06/03 06:48:04;;;;;;;0.00;0.00;;;;;;;12.27;61.45;101121.91;4973273;28;20213;-77
2023/06/03 06:50:29;;;;;;;0.00;0.00;;;;;;;12.40;60.70;101123.03;4976856;28;20185;-76
2023/06/03 06:52:55;;;;;;;0.07;0.07;;;;;;;12.63;60.99;101121.97;4956822;28;20206;-77
2023/06/03 06:55:40;;;;;;;0.10;0.10;;;;;;;12.54;59.62;101115.59;4974828;28;20205;-77
2023/06/03 06:58:08;;;;;;;0.00;0.00;;;;;;;12.60;58.54;101105.34;4956878;28;20209;-77
2023/06/03 07:00:34;;;;;;;0.20;0.10;;;;;;;12.72;58.81;101111.06;4957330;28;20190;-77
2023/06/03 07:02:59;;;;;;;0.00;0.00;;;;;;;12.81;58.70;101115.50;4974967;28;20201;-77
2023/06/03 07:05:24;;;;;;;0.10;0.10;;;;;;;12.86;57.86;101106.34;4973860;28;20216;-77
2023/06/03 07:07:50;;;;;;;0.00;0.00;;;;;;;12.98;58.44;101120.31;4974510;28;20185;-77
2023/06/03 07:10:22;;;;;;;1.00;0.37;;;;;;;13.02;58.32;101117.78;4974684;28;20268;-77
2023/06/03 07:12:51;;;;;;;0.10;0.10;;;;;;;13.17;58.32;101124.84;4973628;28;20205;-75
2023/06/03 07:15:17;;;;;;;0.57;0.40;;;;;;;13.10;57.97;101126.06;4974821;28;20213;-77
2023/06/03 07:17:42;;;;;;;0.47;0.30;;;;;;;13.20;58.48;101122.31;4974279;28;20195;-74
2023/06/03 07:20:21;;;;;;;0.00;0.00;;;;;;;13.25;58.36;101122.16;4974490;28;20197;-77
2023/06/03 07:22:48;;;;;;;0.43;0.20;;;;;;;13.36;59.21;101131.78;4971502;28;20237;-77
2023/06/03 07:25:45;;;;;;;0.00;0.00;;;;;;;13.56;58.91;101130.44;4952217;28;20185;-77
2023/06/03 07:28:12;;;;;;;0.00;0.00;;;;;;;13.57;56.44;101107.34;4974967;28;20192;-77
2023/06/03 07:30:39;;;;;;;0.03;0.03;;;;;;;13.60;57.04;101123.22;4966376;28;20649;-76
2023/06/03 07:33:06;;;;;;;0.00;0.00;;;;;;;13.81;55.79;101108.91;4975433;28;20209;-77
2023/06/03 07:35:33;;;;;;;0.00;0.00;;;;;;;13.91;56.13;101117.69;4976257;28;20198;-77
2023/06/03 07:37:59;;;;;;;0.50;0.10;;;;;;;14.07;54.24;101109.84;4973762;28;20630;-77
2023/06/03 07:40:38;;;;;;;0.03;0.03;;;;;;;14.05;54.00;101109.34;4973686;28;20186;-75
2023/06/03 07:43:04;;;;;;;0.00;0.00;;;;;;;14.49;54.22;101129.53;4963974;28;20209;-77
2023/06/03 07:45:29;;;;;;;0.40;0.40;;;;;;;14.39;52.20;101113.31;4963927;28;20190;-77
2023/06/03 07:47:55;;;;;;;0.63;0.30;;;;;;;14.35;51.71;101109.59;4955354;28;20267;-77
2023/06/03 07:50:26;;;;;;;0.00;0.00;;;;;;;14.34;51.56;101114.28;4931915;28;20200;-76
2023/06/03 07:52:59;;;;;;;0.20;0.20;;;;;;;14.43;52.24;101114.28;4955666;28;20205;-76
2023/06/03 07:55:24;;;;;;;0.07;0.07;;;;;;;14.36;51.05;101103.75;4973496;28;20202;-77
2023/06/03 07:57:50;;;;;;;1.30;0.30;;;;;;;14.29;50.78;101100.66;4973497;28;20194;-77
2023/06/03 08:00:17;;;;;;;0.30;0.20;;;;;;;14.44;50.63;101102.97;4955805;28;20629;-75
2023/06/03 08:02:43;;;;;;;0.00;0.00;;;;;;;14.75;52.13;101110.28;4957170;28;20297;-77
2023/06/03 08:05:08;;;;;;;1.53;0.63;;;;;;;14.69;50.47;101095.91;4969603;28;20214;-77
2023/06/03 08:07:34;;;;;;;3.13;0.17;;;;;;;14.20;50.20;101084.16;4948934;28;20197;-76
2023/06/03 08:10:00;;;;;;;0.40;0.40;;;;;;;14.46;51.65;101111.72;4964459;28;20193;-75
2023/06/03 08:12:33;;;;;;;0.20;0.10;;;;;;;14.46;48.72;101091.66;4973853;28;20224;-77
2023/06/03 08:15:01;;;;;;;0.00;0.00;;;;;;;14.63;49.57;101105.44;4974555;28;20217;-77
2023/06/03 08:17:43;;;;;;;0.40;0.27;;;;;;;14.54;48.70;101099.13;4974511;28;20253;-76
2023/06/03 08:20:10;;;;;;;0.13;0.10;;;;;;;14.70;49.27;101103.00;4967140;28;20178;-77
2023/06/03 08:22:44;;;;;;;0.00;0.00;;;;;;;14.84;50.88;101125.69;4974399;28;20325;-77
2023/06/03 08:25:10;;;;;;;0.00;0.00;;;;;;;14.96;50.57;101119.53;4977826;28;20303;-77
2023/06/03 08:27:37;;;;;;;0.03;0.00;;;;;;;14.96;49.02;101104.97;4958170;28;20285;-77
2023/06/03 08:30:06;;;;;;;0.00;0.00;;;;;;;15.05;48.63;101111.28;4976735;28;20190;-75
2023/06/03 08:32:38;;;;;;;0.00;0.00;;;;;;;14.98;48.15;101103.50;4977759;28;20229;-77
2023/06/03 08:35:05;;;;;;;0.00;0.00;;;;;;;15.17;48.88;101123.22;4975956;28;20201;-76
2023/06/03 08:37:32;;;;;;;0.77;0.20;;;;;;;15.29;47.47;101096.97;4975103;28;20185;-75
2023/06/03 08:39:58;;;;;;;3.30;0.10;;;;;;;15.26;47.89;101106.72;4959847;28;20201;-80
2023/06/03 08:42:30;;;;;;;0.20;0.20;;;;;;;14.92;45.90;101082.81;4978910;28;20210;-80
2023/06/03 08:45:03;;;;;;;0.00;0.00;;;;;;;15.15;46.63;101094.41;4976452;28;20620;-77
2023/06/03 08:47:46;;;;;;;0.83;0.10;;;;;;;15.16;46.29;101096.84;4960956;28;20193;-79
2023/06/03 08:50:16;;;;;;;0.00;0.00;;;;;;;15.26;46.78;101100.41;4977105;28;20185;-80
2023/06/03 08:52:45;;;;;;;1.43;0.70;;;;;;;15.03;46.97;101103.31;4976420;28;20205;-78
2023/06/03 08:55:14;;;;;;;0.10;0.10;;;;;;;14.97;48.30;101112.91;4959866;28;20210;-79
2023/06/03 08:58:18;;;;;;;0.10;0.10;;;;;;;15.29;47.09;101099.75;4959976;28;20348;-77
2023/06/03 09:00:44;;;;;;;0.00;0.00;;;;;;;15.43;47.29;101095.66;4880542;29;20342;-77
2023/06/03 09:03:11;;;;;;;0.70;0.10;;;;;;;15.25;44.68;101080.31;4960692;28;20218;-74
2023/06/03 09:05:38;;;;;;;0.50;0.40;;;;;;;15.27;43.79;101074.47;4976995;28;20186;-75
2023/06/03 09:08:04;;;;;;;0.23;0.10;;;;;;;15.42;44.43;101082.22;4972629;28;20417;-76
2023/06/03 09:10:31;;;;;;;0.33;0.33;;;;;;;15.07;43.90;101065.78;4972255;28;20614;-75
2023/06/03 09:12:58;;;;;;;0.20;0.20;;;;;;;15.52;45.42;101078.31;4969971;28;20292;-76
2023/06/03 09:15:23;;;;;;;0.00;0.00;;;;;;;15.59;45.20;101078.59;4956463;28;20234;-76
2023/06/03 09:17:49;;;;;;;0.20;0.20;;;;;;;15.70;43.72;101068.88;4969705;28;20198;-76
2023/06/03 09:20:15;;;;;;;0.50;0.33;;;;;;;15.94;44.08;101080.13;4974065;28;20193;-76
2023/06/03 09:22:46;;;;;;;0.20;0.20;;;;;;;16.15;44.27;101077.38;4970213;28;20202;-76
2023/06/03 09:25:12;;;;;;;0.20;0.20;;;;;;;16.14;41.90;101069.47;4974091;28;20185;-76
2023/06/03 09:27:39;;;;;;;0.20;0.10;;;;;;;16.20;41.82;101070.88;4954563;28;20186;-76
2023/06/03 09:30:05;;;;;;;0.53;0.30;;;;;;;15.90;41.11;101054.34;4973947;28;20304;-76
2023/06/03 09:32:31;;;;;;;0.10;0.10;;;;;;;16.08;41.29;101068.03;4970549;28;20309;-76
2023/06/03 09:34:57;;;;;;;0.10;0.10;;;;;;;15.94;40.16;101047.03;4973472;28;20241;-76
2023/06/03 09:37:22;;;;;;;0.00;0.00;;;;;;;16.06;40.44;101049.91;4971427;28;20221;-76
2023/06/03 09:39:50;;;;;;;0.00;0.00;;;;;;;16.20;42.32;101068.09;4973185;28;20190;-76
2023/06/03 09:42:16;;;;;;;0.00;0.00;;;;;;;16.34;41.26;101052.94;4954399;28;20213;-76
2023/06/03 09:44:49;;;;;;;0.00;0.00;;;;;;;16.48;41.73;101052.66;4972706;28;20551;-74
2023/06/03 09:47:14;;;;;;;0.37;0.20;;;;;;;16.64;41.55;101055.66;4972351;28;20182;-76
2023/06/03 09:50:01;;;;;;;0.00;0.00;;;;;;;16.50;40.17;101039.38;4971793;28;20197;-76
2023/06/03 09:52:32;;;;;;;0.00;0.00;;;;;;;16.70;39.93;101045.25;4971016;28;20225;-75
2023/06/03 09:55:02;;;;;;;0.13;0.13;;;;;;;16.64;39.69;101041.84;4965273;28;20461;-76
2023/06/03 09:57:27;;;;;;;0.10;0.10;;;;;;;16.64;39.79;101044.63;4971349;28;20185;-76
2023/06/03 10:00:04;;;;;;;0.00;0.00;;;;;;;16.88;41.39;101071.53;4973027;28;20248;-76
2023/06/03 10:02:29;;;;;;;0.00;0.00;;;;;;;16.93;39.16;101043.75;4971562;28;20205;-76
2023/06/03 10:04:54;;;;;;;0.10;0.10;;;;;;;16.81;39.86;101041.72;4972946;28;20549;-76
2023/06/03 10:07:20;;;;;;;0.00;0.00;;;;;;;16.72;39.13;101037.44;4972148;28;20264;-76
2023/06/03 10:09:47;;;;;;;0.00;0.00;;;;;;;16.69;38.58;101033.41;4939029;28;20240;-76
2023/06/03 10:12:13;;;;;;;0.40;0.30;;;;;;;16.68;38.43;101033.72;4972885;28;20611;-76
2023/06/03 10:14:46;;;;;;;0.83;0.77;;;;;;;16.58;38.44;101032.97;4955334;28;20209;-76
2023/06/03 10:17:13;;;;;;;0.00;0.00;;;;;;;16.85;38.10;101026.09;4972966;28;20186;-76
2023/06/03 10:19:40;;;;;;;0.17;0.17;;;;;;;16.55;37.77;101019.84;4955001;28;20592;-76
2023/06/03 10:22:07;;;;;;;0.17;0.17;;;;;;;16.62;37.57;101019.28;4955710;28;20201;-76
2023/06/03 10:24:36;;;;;;;0.50;0.33;;;;;;;16.74;38.26;101024.91;4972920;28;20552;-76
2023/06/03 10:27:02;;;;;;;0.40;0.40;;;;;;;16.63;37.61;101024.47;4972758;28;20174;-75
2023/06/03 10:29:31;;;;;;;0.20;0.20;;;;;;;16.71;38.26;101025.59;4955103;28;20186;-76
2023/06/03 10:32:00;;;;;;;0.03;0.03;;;;;;;17.01;38.75;101025.47;4972506;28;20190;-76
2023/06/03 10:34:28;;;;;;;0.03;0.00;;;;;;;16.88;38.77;101027.38;4972377;28;20320;-74
2023/06/03 10:36:57;;;;;;;0.10;0.10;;;;;;;16.80;37.47;101012.53;4972610;28;20192;-76
2023/06/03 10:39:24;;;;;;;0.83;0.30;;;;;;;16.96;38.10;101026.50;4963638;28;20189;-76
2023/06/03 10:41:51;;;;;;;0.10;0.10;;;;;;;17.16;38.57;101025.63;4955150;28;20186;-76
2023/06/03 10:44:19;;;;;;;0.00;0.00;;;;;;;17.20;37.89;101020.22;4972572;28;20224;-76
2023/06/03 10:46:54;;;;;;;0.20;0.10;;;;;;;17.71;39.59;101051.97;4972134;28;20184;-75
2023/06/03 10:49:24;;;;;;;0.10;0.10;;;;;;;17.78;36.66;101018.22;4954863;28;20252;-76
2023/06/03 10:51:58;;;;;;;0.20;0.20;;;;;;;17.54;36.26;101007.97;4972226;28;20178;-75
2023/06/03 10:54:34;;;;;;;0.00;0.00;;;;;;;17.44;37.55;101022.22;4970645;28;20273;-76
2023/06/03 10:57:08;;;;;;;0.10;0.10;;;;;;;17.31;36.68;101013.09;4972211;28;20173;-76
2023/06/03 10:59:45;;;;;;;0.00;0.00;;;;;;;17.53;36.80;101012.69;4972326;28;20518;-76
2023/06/03 11:02:12;;;;;;;0.20;0.20;;;;;;;17.19;36.61;100997.31;4972218;28;20204;-76
2023/06/03 11:04:38;;;;;;;0.07;0.07;;;;;;;17.31;36.48;100999.28;4972188;28;20174;-75
2023/06/03 11:07:06;;;;;;;0.17;0.10;;;;;;;17.52;35.98;100988.16;4971951;28;20624;-76
2023/06/03 11:09:35;;;;;;;0.20;0.20;;;;;;;17.48;34.40;100970.63;4971264;28;20206;-74
2023/06/03 11:12:04;;;;;;;0.10;0.10;;;;;;;17.62;35.39;100978.59;4972094;28;21785;-76
2023/06/03 11:14:29;;;;;;;0.33;0.20;;;;;;;17.79;35.53;100970.91;4972043;28;20264;-75
2023/06/03 11:16:58;;;;;;;0.00;0.00;;;;;;;18.03;35.95;100983.06;4973279;28;20664;-76
2023/06/03 11:19:26;;;;;;;0.30;0.20;;;;;;;17.44;35.59;100978.81;4955631;28;20268;-80
2023/06/03 11:21:51;;;;;;;0.53;0.27;;;;;;;17.25;35.96;100979.38;4973230;28;20261;-74
2023/06/03 11:24:39;;;;;;;0.13;0.13;;;;;;;17.41;35.80;100979.50;4972335;28;20273;-76
2023/06/03 11:27:13;;;;;;;0.10;0.10;;;;;;;17.59;35.77;100982.84;4972266;28;20179;-76
2023/06/03 11:30:07;;;;;;;0.00;0.00;;;;;;;17.76;35.63;100982.63;4954758;28;20263;-76
2023/06/03 11:32:35;;;;;;;0.10;0.10;;;;;;;17.54;35.08;100985.84;4965921;28;20221;-75